Time;durP1;ratioP1;P1;durP2;ratioP2;P2;SDS_P1;SDS_P2;PMS_P1;PMS_P2;Temp;Humidity;BMP_temperature;BMP_pressure;BME280_temperature;BME280_humidity;BME280_pressure;Samples;Min_cycle;Max_cycle;Signal;HPM_P1;HPM_P2
2022/10/22 00:01:48;;;;;;;;;;;14.60;90.00;;;;;;5016243;28;19995;-85
2022/10/22 00:04:14;;;;;;;;;;;14.60;90.10;;;;;;4999386;28;19920;-85
2022/10/22 00:06:41;;;;;;;;;;;14.60;90.20;;;;;;5003880;28;20523;-85
2022/10/22 00:09:07;;;;;;;;;;;14.60;90.10;;;;;;5005308;28;20111;-84
2022/10/22 00:11:32;;;;;;;;;;;14.60;90.00;;;;;;5004320;28;20015;-85
2022/10/22 00:13:58;;;;;;;;;;;14.60;90.00;;;;;;5003101;28;19918;-85
2022/10/22 00:16:23;;;;;;;;;;;14.60;90.10;;;;;;5003262;28;19913;-85
2022/10/22 00:18:48;;;;;;;;;;;14.60;90.10;;;;;;4999731;28;19944;-85
2022/10/22 00:21:14;;;;;;;;;;;14.60;90.30;;;;;;5000107;28;20483;-84
2022/10/22 00:23:41;;;;;;;;;;;14.60;90.40;;;;;;5004557;28;19960;-84
2022/10/22 00:26:06;;;;;;;;;;;14.60;90.30;;;;;;5008182;28;19968;-85
2022/10/22 00:28:32;;;;;;;;;;;14.60;90.20;;;;;;5009780;28;19913;-85
2022/10/22 00:30:59;;;;;;;;;;;14.70;90.00;;;;;;5010647;28;19972;-84
2022/10/22 00:33:24;;;;;;;;;;;14.60;90.00;;;;;;5018905;28;20379;-85
2022/10/22 00:35:50;;;;;;;;;;;14.70;90.10;;;;;;5005543;28;19928;-85
2022/10/22 00:38:15;;;;;;;;;;;14.60;90.20;;;;;;5010018;28;19928;-85
2022/10/22 00:40:41;;;;;;;;;;;14.60;90.20;;;;;;5006227;28;19975;-85
2022/10/22 00:43:09;;;;;;;;;;;14.60;90.20;;;;;;5004932;28;19921;-85
2022/10/22 00:45:35;;;;;;;;;;;14.60;90.20;;;;;;5012697;28;20357;-85
2022/10/22 00:48:03;;;;;;;;;;;14.70;90.20;;;;;;5006039;28;20004;-85
2022/10/22 00:50:34;;;;;;;;;;;14.60;90.20;;;;;;4986574;28;22037;-85
2022/10/22 00:53:01;;;;;;;;;;;14.60;90.40;;;;;;5006338;28;19918;-85
2022/10/22 00:55:27;;;;;;;;;;;14.70;90.40;;;;;;5006895;28;20338;-85
2022/10/22 00:57:54;;;;;;;;;;;14.80;90.20;;;;;;5002572;28;20445;-84
2022/10/22 01:00:19;;;;;;;;;;;14.80;90.20;;;;;;5003269;28;20303;-85
2022/10/22 01:02:46;;;;;;;;;;;14.60;90.30;;;;;;5006456;28;20052;-85
2022/10/22 01:05:11;;;;;;;;;;;14.60;90.40;;;;;;5002511;28;20041;-85
2022/10/22 01:07:40;;;;;;;;;;;14.60;90.50;;;;;;5012809;28;19956;-85
2022/10/22 01:10:09;;;;;;;;;;;14.60;90.50;;;;;;5013076;28;20302;-85
2022/10/22 01:12:47;;;;;;;;;;;14.60;90.60;;;;;;5003696;28;19929;-84
2022/10/22 01:15:21;;;;;;;;;;;14.50;90.60;;;;;;5015382;28;19924;-85
2022/10/22 01:17:56;;;;;;;;;;;14.50;90.70;;;;;;5004834;28;19965;-85
2022/10/22 01:20:29;;;;;;;;;;;14.50;90.70;;;;;;5002538;28;19926;-85
2022/10/22 01:23:01;;;;;;;;;;;14.50;90.80;;;;;;5005419;28;20409;-87
2022/10/22 01:25:33;;;;;;;;;;;14.50;90.80;;;;;;5002065;28;19961;-85
2022/10/22 01:28:17;;;;;;;;;;;14.50;90.90;;;;;;5011494;28;19943;-86
2022/10/22 01:30:43;;;;;;;;;;;14.50;91.00;;;;;;5001743;28;20004;-84
2022/10/22 01:33:10;;;;;;;;;;;14.50;91.00;;;;;;5003049;28;20417;-84
2022/10/22 01:35:37;;;;;;;;;;;14.50;91.20;;;;;;4998850;28;19921;-84
2022/10/22 01:38:04;;;;;;;;;;;14.50;91.00;;;;;;5003477;28;20394;-84
2022/10/22 01:40:30;;;;;;;;;;;14.50;91.10;;;;;;5030657;28;19980;-84
2022/10/22 01:43:00;;;;;;;;;;;14.50;91.10;;;;;;4987151;23;19945;-83
2022/10/22 01:45:49;;;;;;;;;;;14.50;91.10;;;;;;4967954;28;19926;-83
2022/10/22 01:48:31;;;;;;;;;;;14.60;91.10;;;;;;4951352;28;19918;-85
2022/10/22 01:50:57;;;;;;;;;;;14.50;91.10;;;;;;4974915;28;19933;-85
2022/10/22 01:53:31;;;;;;;;;;;14.50;91.10;;;;;;4968615;28;19915;-85
2022/10/22 01:56:07;;;;;;;;;;;14.60;91.10;;;;;;4982877;28;20151;-84
2022/10/22 01:58:51;;;;;;;;;;;14.60;91.10;;;;;;4960700;28;19919;-83
2022/10/22 02:01:25;;;;;;;;;;;14.60;91.10;;;;;;4980674;28;19929;-85
2022/10/22 02:04:00;;;;;;;;;;;14.60;91.00;;;;;;4968379;28;19922;-85
2022/10/22 02:06:26;;;;;;;;;;;14.60;91.00;;;;;;4967560;28;20184;-84
2022/10/22 02:08:53;;;;;;;;;;;14.50;90.90;;;;;;4966072;28;19922;-84
2022/10/22 02:11:18;;;;;;;;;;;14.50;91.10;;;;;;4981233;28;19950;-85
2022/10/22 02:13:55;;;;;;;;;;;14.50;91.10;;;;;;4973560;28;19961;-84
2022/10/22 02:16:24;;;;;;;;;;;14.50;91.00;;;;;;4971898;28;20016;-84
2022/10/22 02:18:52;;;;;;;;;;;14.50;91.10;;;;;;4967450;28;19918;-83
2022/10/22 02:21:18;;;;;;;;;;;14.50;91.00;;;;;;4980670;28;20332;-82
2022/10/22 02:23:43;;;;;;;;;;;14.50;91.10;;;;;;4971402;28;19914;-84
2022/10/22 02:26:21;;;;;;;;;;;14.50;91.10;;;;;;4994417;28;19922;-84
2022/10/22 02:29:05;;;;;;;;;;;14.50;91.00;;;;;;4995181;28;20395;-85
2022/10/22 02:31:32;;;;;;;;;;;14.50;91.00;;;;;;4995052;28;19973;-84
2022/10/22 02:34:01;;;;;;;;;;;14.60;90.90;;;;;;4974474;28;19910;-84
2022/10/22 02:36:27;;;;;;;;;;;14.50;90.70;;;;;;4980771;28;19914;-85
2022/10/22 02:38:53;;;;;;;;;;;14.50;90.90;;;;;;5001537;28;20064;-85
2022/10/22 02:41:19;;;;;;;;;;;14.50;91.00;;;;;;4997283;28;20472;-84
2022/10/22 02:43:48;;;;;;;;;;;14.50;91.00;;;;;;4988299;28;19918;-85
2022/10/22 02:46:13;;;;;;;;;;;14.40;91.00;;;;;;4996565;28;20011;-84
2022/10/22 02:48:39;;;;;;;;;;;14.50;91.10;;;;;;4997378;28;20016;-84
2022/10/22 02:51:04;;;;;;;;;;;14.40;91.00;;;;;;4996424;28;20379;-84
2022/10/22 02:53:30;;;;;;;;;;;14.40;90.90;;;;;;4977651;28;19961;-84
2022/10/22 02:55:55;;;;;;;;;;;14.40;90.90;;;;;;4994700;28;19918;-85
2022/10/22 02:58:21;;;;;;;;;;;14.40;91.00;;;;;;4983724;28;19918;-85
2022/10/22 03:00:47;;;;;;;;;;;14.30;90.90;;;;;;4966954;28;19933;-84
2022/10/22 03:03:12;;;;;;;;;;;14.30;91.00;;;;;;4977156;28;19957;-85
2022/10/22 03:05:38;;;;;;;;;;;14.20;91.00;;;;;;4966709;28;20049;-84
2022/10/22 03:08:03;;;;;;;;;;;14.20;90.90;;;;;;4981584;28;19973;-84
2022/10/22 03:10:29;;;;;;;;;;;14.10;91.00;;;;;;4965765;28;19981;-85
2022/10/22 03:12:55;;;;;;;;;;;14.10;91.10;;;;;;4961237;28;19914;-84
2022/10/22 03:15:20;;;;;;;;;;;14.10;91.10;;;;;;4982982;28;19918;-84
2022/10/22 03:17:46;;;;;;;;;;;14.00;91.20;;;;;;4988709;28;19917;-85
2022/10/22 03:20:11;;;;;;;;;;;14.00;91.10;;;;;;4992882;28;19937;-82
2022/10/22 03:22:38;;;;;;;;;;;14.00;91.20;;;;;;4990986;28;19914;-82
2022/10/22 03:25:06;;;;;;;;;;;14.00;91.10;;;;;;4987432;28;19925;-82
2022/10/22 03:27:32;;;;;;;;;;;14.00;91.30;;;;;;4962535;28;19914;-84
2022/10/22 03:29:58;;;;;;;;;;;13.90;91.30;;;;;;4967196;28;20365;-84
2022/10/22 03:32:23;;;;;;;;;;;13.90;91.20;;;;;;4982018;28;19921;-85
2022/10/22 03:34:49;;;;;;;;;;;13.90;91.20;;;;;;4964311;28;19918;-84
2022/10/22 03:37:14;;;;;;;;;;;13.80;91.20;;;;;;4968515;28;19914;-84
2022/10/22 03:39:40;;;;;;;;;;;13.80;91.10;;;;;;4985829;28;19928;-85
2022/10/22 03:42:06;;;;;;;;;;;13.80;91.30;;;;;;4970203;28;19917;-85
2022/10/22 03:44:31;;;;;;;;;;;13.80;91.30;;;;;;4989260;28;19975;-85
2022/10/22 03:46:57;;;;;;;;;;;13.90;91.30;;;;;;4995014;28;19917;-84
2022/10/22 03:49:22;;;;;;;;;;;13.80;91.30;;;;;;4984831;28;19914;-84
2022/10/22 03:51:48;;;;;;;;;;;13.80;91.30;;;;;;4960658;28;19918;-84
2022/10/22 03:54:14;;;;;;;;;;;13.80;91.40;;;;;;4968967;28;19926;-84
2022/10/22 03:56:40;;;;;;;;;;;13.80;91.50;;;;;;4960098;28;19976;-85
2022/10/22 03:59:05;;;;;;;;;;;13.80;91.70;;;;;;4980118;28;19918;-84
2022/10/22 04:01:31;;;;;;;;;;;13.90;91.80;;;;;;4985182;28;19924;-84
2022/10/22 04:03:57;;;;;;;;;;;13.90;91.90;;;;;;4985167;28;19910;-83
2022/10/22 04:06:22;;;;;;;;;;;13.90;91.90;;;;;;4980361;28;19920;-85
2022/10/22 04:08:48;;;;;;;;;;;14.00;92.10;;;;;;4960201;28;20016;-84
2022/10/22 04:11:14;;;;;;;;;;;14.10;92.20;;;;;;4978777;28;19997;-85
2022/10/22 04:13:39;;;;;;;;;;;14.20;91.90;;;;;;4978670;28;19923;-84
2022/10/22 04:16:09;;;;;;;;;;;14.30;91.90;;;;;;4967722;28;20064;-83
2022/10/22 04:18:35;;;;;;;;;;;14.30;91.90;;;;;;4965795;28;19922;-84
2022/10/22 04:21:00;;;;;;;;;;;14.30;91.60;;;;;;4963832;28;19933;-82
2022/10/22 04:23:26;;;;;;;;;;;14.30;91.90;;;;;;4962808;28;20475;-85
2022/10/22 04:25:56;;;;;;;;;;;14.40;91.90;;;;;;4971539;28;19921;-85
2022/10/22 04:28:22;;;;;;;;;;;14.50;91.60;;;;;;4978646;28;20434;-85
2022/10/22 04:30:47;;;;;;;;;;;14.40;91.50;;;;;;4970221;28;19957;-85
2022/10/22 04:33:12;;;;;;;;;;;14.40;91.50;;;;;;4983155;28;19922;-86
2022/10/22 04:35:38;;;;;;;;;;;14.40;91.60;;;;;;4995107;28;19910;-85
2022/10/22 04:38:04;;;;;;;;;;;14.40;91.50;;;;;;4982247;28;19925;-85
2022/10/22 04:40:29;;;;;;;;;;;14.30;91.60;;;;;;4972754;28;19948;-84
2022/10/22 04:42:55;;;;;;;;;;;14.30;91.60;;;;;;4979886;28;19918;-84
2022/10/22 04:45:20;;;;;;;;;;;14.30;91.70;;;;;;4980023;28;19918;-83
2022/10/22 04:47:46;;;;;;;;;;;14.20;91.80;;;;;;4975026;28;19975;-85
2022/10/22 04:50:11;;;;;;;;;;;14.20;91.80;;;;;;4961899;28;19925;-85
2022/10/22 04:52:37;;;;;;;;;;;14.20;91.80;;;;;;4962990;28;20517;-86
2022/10/22 04:55:02;;;;;;;;;;;14.10;91.90;;;;;;4981385;28;19918;-85
2022/10/22 04:57:28;;;;;;;;;;;14.20;92.00;;;;;;4961529;28;19930;-84
2022/10/22 04:59:54;;;;;;;;;;;14.20;92.00;;;;;;4980062;28;19922;-85
2022/10/22 05:02:19;;;;;;;;;;;14.30;92.10;;;;;;4979304;28;20024;-85
2022/10/22 05:04:45;;;;;;;;;;;14.30;91.90;;;;;;4966473;28;19914;-85
2022/10/22 05:07:10;;;;;;;;;;;14.30;91.90;;;;;;4976673;28;20001;-84
2022/10/22 05:09:36;;;;;;;;;;;14.30;91.90;;;;;;4967229;28;19922;-85
2022/10/22 05:12:01;;;;;;;;;;;14.30;91.80;;;;;;4983787;28;19922;-86
2022/10/22 05:14:27;;;;;;;;;;;14.30;91.80;;;;;;4970250;28;20096;-84
2022/10/22 05:16:52;;;;;;;;;;;14.40;91.80;;;;;;4985731;28;19921;-85
2022/10/22 05:19:20;;;;;;;;;;;14.40;91.80;;;;;;4967222;28;20046;-85
2022/10/22 05:21:45;;;;;;;;;;;14.40;91.80;;;;;;4981415;28;19964;-85
2022/10/22 05:24:11;;;;;;;;;;;14.40;91.70;;;;;;4988396;28;20000;-85
2022/10/22 05:26:37;;;;;;;;;;;14.50;91.80;;;;;;4990263;28;19918;-85
2022/10/22 05:29:02;;;;;;;;;;;14.50;91.70;;;;;;4968578;28;20418;-85
2022/10/22 05:31:28;;;;;;;;;;;14.50;91.70;;;;;;4980527;28;20284;-85
2022/10/22 05:33:54;;;;;;;;;;;14.50;91.60;;;;;;4966658;28;20323;-85
2022/10/22 05:36:20;;;;;;;;;;;14.50;91.50;;;;;;4969364;28;20041;-85
2022/10/22 05:38:46;;;;;;;;;;;14.50;91.30;;;;;;4981540;28;19921;-85
2022/10/22 05:41:15;;;;;;;;;;;14.50;91.20;;;;;;4970624;28;19918;-86
2022/10/22 05:43:41;;;;;;;;;;;14.40;91.40;;;;;;4966222;28;19925;-85
2022/10/22 05:46:07;;;;;;;;;;;14.50;91.50;;;;;;4966831;28;19914;-86
2022/10/22 05:48:33;;;;;;;;;;;14.40;91.30;;;;;;4966519;28;19918;-85
2022/10/22 05:51:04;;;;;;;;;;;14.40;91.30;;;;;;4965305;28;19922;-86
2022/10/22 05:53:33;;;;;;;;;;;14.30;91.50;;;;;;4965109;28;19983;-83
2022/10/22 05:55:59;;;;;;;;;;;14.30;91.50;;;;;;4978166;28;19921;-85
2022/10/22 05:58:24;;;;;;;;;;;14.30;91.60;;;;;;4980165;28;19972;-83
2022/10/22 06:00:50;;;;;;;;;;;14.30;91.70;;;;;;4963176;28;19922;-84
2022/10/22 06:03:15;;;;;;;;;;;14.30;91.90;;;;;;4965349;28;19914;-85
2022/10/22 06:05:40;;;;;;;;;;;14.30;91.80;;;;;;4962406;28;19921;-85
2022/10/22 06:08:08;;;;;;;;;;;14.40;91.60;;;;;;4967670;28;19921;-85
2022/10/22 06:10:34;;;;;;;;;;;14.40;91.40;;;;;;4968614;28;19922;-86
2022/10/22 06:13:06;;;;;;;;;;;14.30;91.40;;;;;;4970336;28;19933;-86
2022/10/22 06:15:32;;;;;;;;;;;14.30;91.50;;;;;;4985705;28;19918;-85
2022/10/22 06:17:57;;;;;;;;;;;14.20;91.60;;;;;;4985799;28;20413;-85
2022/10/22 06:20:23;;;;;;;;;;;14.20;91.70;;;;;;4970424;28;20351;-86
2022/10/22 06:22:48;;;;;;;;;;;14.10;91.80;;;;;;4984831;28;19929;-85
2022/10/22 06:25:19;;;;;;;;;;;14.10;91.80;;;;;;4981219;28;20000;-86
2022/10/22 06:27:48;;;;;;;;;;;14.10;91.80;;;;;;4961750;28;19941;-84
2022/10/22 06:30:14;;;;;;;;;;;14.10;91.80;;;;;;4968021;28;19920;-87
2022/10/22 06:32:39;;;;;;;;;;;14.10;91.70;;;;;;4969790;28;20008;-85
2022/10/22 06:35:05;;;;;;;;;;;14.10;91.70;;;;;;4968856;28;19914;-90
2022/10/22 06:37:31;;;;;;;;;;;14.10;91.60;;;;;;4970232;28;19925;-85
2022/10/22 06:39:56;;;;;;;;;;;14.10;91.70;;;;;;4967986;28;20012;-85
2022/10/22 06:42:22;;;;;;;;;;;14.10;91.70;;;;;;4978417;28;20415;-85
2022/10/22 06:44:47;;;;;;;;;;;14.10;91.90;;;;;;4984743;28;20016;-86
2022/10/22 06:47:13;;;;;;;;;;;14.00;91.90;;;;;;4987836;28;19916;-84
2022/10/22 06:49:38;;;;;;;;;;;14.10;92.00;;;;;;5006935;28;19977;-84
2022/10/22 06:52:40;;;;;;;;;;;14.10;92.00;;;;;;5010575;28;19913;-86
2022/10/22 06:55:14;;;;;;;;;;;14.10;92.10;;;;;;4969431;28;20046;-86
2022/10/22 06:57:56;;;;;;;;;;;14.10;92.10;;;;;;4989038;28;19976;-85
2022/10/22 07:00:21;;;;;;;;;;;14.10;92.00;;;;;;4968655;28;19922;-87
2022/10/22 07:02:51;;;;;;;;;;;14.20;92.10;;;;;;4999259;28;20002;-85
2022/10/22 07:05:17;;;;;;;;;;;14.30;92.10;;;;;;4966294;28;19918;-86
2022/10/22 07:07:43;;;;;;;;;;;14.30;92.10;;;;;;4981297;28;19929;-86
2022/10/22 07:10:08;;;;;;;;;;;14.50;92.20;;;;;;4971950;28;19949;-87
2022/10/22 07:12:36;;;;;;;;;;;14.50;92.00;;;;;;4975542;28;19922;-87
2022/10/22 07:15:02;;;;;;;;;;;14.60;91.90;;;;;;4991038;28;19921;-89
2022/10/22 07:17:28;;;;;;;;;;;14.80;91.80;;;;;;4982436;28;19914;-88
2022/10/22 07:19:54;;;;;;;;;;;14.90;91.30;;;;;;4964767;28;19945;-86
2022/10/22 07:22:22;;;;;;;;;;;15.00;90.90;;;;;;4990839;28;20026;-87
2022/10/22 07:24:47;;;;;;;;;;;15.00;90.70;;;;;;4995867;28;19937;-84
2022/10/22 07:27:13;;;;;;;;;;;15.00;90.70;;;;;;4994622;28;19961;-85
2022/10/22 07:29:38;;;;;;;;;;;15.00;90.50;;;;;;4987517;28;20359;-85
2022/10/22 07:32:04;;;;;;;;;;;15.00;90.00;;;;;;4975466;28;19918;-84
2022/10/22 07:34:29;;;;;;;;;;;15.00;90.10;;;;;;5003515;28;19918;-84
2022/10/22 07:36:56;;;;;;;;;;;15.00;90.00;;;;;;4999794;28;19914;-87
2022/10/22 07:39:22;;;;;;;;;;;15.00;89.80;;;;;;5001369;28;19926;-82
2022/10/22 07:41:50;;;;;;;;;;;15.00;89.60;;;;;;4968240;28;19926;-85
2022/10/22 07:44:15;;;;;;;;;;;15.10;89.40;;;;;;4976638;23;20355;-80
2022/10/22 07:46:41;;;;;;;;;;;15.00;89.70;;;;;;4940536;28;19926;-84
2022/10/22 07:49:07;;;;;;;;;;;15.10;89.50;;;;;;4951752;28;20291;-85
2022/10/22 07:51:32;;;;;;;;;;;15.10;89.30;;;;;;4968037;28;20429;-84
2022/10/22 07:53:58;;;;;;;;;;;15.20;89.30;;;;;;4945563;28;20481;-85
2022/10/22 07:56:23;;;;;;;;;;;15.20;89.00;;;;;;4967820;28;20294;-85
2022/10/22 07:58:49;;;;;;;;;;;15.30;88.70;;;;;;4947630;28;20644;-85
2022/10/22 08:01:14;;;;;;;;;;;15.40;88.50;;;;;;4949816;28;19946;-84
2022/10/22 08:03:40;;;;;;;;;;;15.50;88.30;;;;;;4958348;28;20181;-84
2022/10/22 08:06:05;;;;;;;;;;;15.50;88.00;;;;;;4944903;28;20861;-84
2022/10/22 08:08:32;;;;;;;;;;;15.50;87.90;;;;;;4940108;28;19918;-84
2022/10/22 08:10:58;;;;;;;;;;;15.60;88.10;;;;;;4964353;28;19925;-84
2022/10/22 08:13:25;;;;;;;;;;;15.70;87.40;;;;;;4967269;28;19914;-84
2022/10/22 08:15:50;;;;;;;;;;;15.90;86.90;;;;;;4954800;28;20316;-84
2022/10/22 08:18:16;;;;;;;;;;;15.90;86.70;;;;;;4965183;28;20196;-84
2022/10/22 08:20:42;;;;;;;;;;;16.00;86.00;;;;;;4966363;28;19931;-84
2022/10/22 08:23:07;;;;;;;;;;;16.10;85.50;;;;;;4952705;28;20294;-85
2022/10/22 08:25:33;;;;;;;;;;;16.00;85.30;;;;;;4951636;28;20005;-85
2022/10/22 08:27:58;;;;;;;;;;;16.00;85.50;;;;;;4951852;28;19927;-85
2022/10/22 08:30:26;;;;;;;;;;;16.10;85.50;;;;;;4967446;28;20346;-85
2022/10/22 08:32:52;;;;;;;;;;;16.20;85.50;;;;;;4965758;28;19933;-85
2022/10/22 08:35:17;;;;;;;;;;;16.40;84.40;;;;;;4969566;28;19914;-85
2022/10/22 08:37:43;;;;;;;;;;;16.50;84.30;;;;;;4953184;28;19974;-85
2022/10/22 08:40:08;;;;;;;;;;;16.50;84.20;;;;;;4968016;28;19925;-84
2022/10/22 08:42:34;;;;;;;;;;;16.60;83.70;;;;;;4960787;28;20098;-84
2022/10/22 08:45:14;;;;;;;;;;;16.80;82.70;;;;;;4957271;28;20318;-85
2022/10/22 08:47:59;;;;;;;;;;;16.80;81.90;;;;;;4973174;28;19930;-85
2022/10/22 08:50:29;;;;;;;;;;;16.90;81.60;;;;;;4950067;28;19993;-85
2022/10/22 08:52:56;;;;;;;;;;;16.80;81.90;;;;;;4972372;28;19937;-85
2022/10/22 08:55:23;;;;;;;;;;;16.90;81.40;;;;;;4957038;28;20350;-85
2022/10/22 08:57:54;;;;;;;;;;;16.90;81.30;;;;;;4970185;28;19942;-85
2022/10/22 09:00:31;;;;;;;;;;;16.80;81.20;;;;;;4955429;28;19925;-85
2022/10/22 09:03:21;;;;;;;;;;;16.70;81.60;;;;;;4956631;28;19921;-86
2022/10/22 09:05:54;;;;;;;;;;;16.70;80.80;;;;;;4955861;28;20005;-82
2022/10/22 09:08:19;;;;;;;;;;;16.70;81.10;;;;;;4959630;28;19921;-82
2022/10/22 09:10:47;;;;;;;;;;;16.60;81.20;;;;;;4957866;29;19978;-82
2022/10/22 09:13:15;;;;;;;;;;;16.60;81.40;;;;;;4957796;28;20302;-83
2022/10/22 09:15:41;;;;;;;;;;;16.60;81.40;;;;;;4967927;28;19957;-82
2022/10/22 09:18:09;;;;;;;;;;;16.60;81.50;;;;;;4971650;28;19949;-82
2022/10/22 09:20:48;;;;;;;;;;;16.50;81.40;;;;;;4955426;28;19973;-82
2022/10/22 09:23:16;;;;;;;;;;;16.50;80.80;;;;;;4969453;28;19918;-82
2022/10/22 09:25:43;;;;;;;;;;;16.50;81.30;;;;;;4943263;29;19925;-82
2022/10/22 09:28:09;;;;;;;;;;;16.60;80.70;;;;;;4938410;28;19922;-82
2022/10/22 09:30:36;;;;;;;;;;;16.70;80.50;;;;;;4944303;28;20293;-82
2022/10/22 09:33:05;;;;;;;;;;;16.70;80.60;;;;;;4942064;28;19919;-82
2022/10/22 09:35:33;;;;;;;;;;;16.70;80.20;;;;;;4941729;28;19915;-81
2022/10/22 09:38:04;;;;;;;;;;;16.80;79.70;;;;;;4943419;28;19922;-82
2022/10/22 09:40:30;;;;;;;;;;;17.00;79.20;;;;;;4945830;28;19925;-83
2022/10/22 09:42:55;;;;;;;;;;;16.90;79.70;;;;;;4954070;28;19938;-82
2022/10/22 09:45:24;;;;;;;;;;;16.80;79.70;;;;;;4950646;28;19925;-82
2022/10/22 09:47:49;;;;;;;;;;;16.80;79.70;;;;;;4963368;28;19914;-80
2022/10/22 09:50:20;;;;;;;;;;;16.80;79.40;;;;;;4968231;28;19925;-80
2022/10/22 09:53:04;;;;;;;;;;;16.90;79.20;;;;;;4957894;28;19934;-80
2022/10/22 09:55:30;;;;;;;;;;;16.90;79.30;;;;;;4970268;28;19977;-80
2022/10/22 09:57:57;;;;;;;;;;;17.00;78.90;;;;;;4958741;28;20417;-80
2022/10/22 10:00:26;;;;;;;;;;;17.00;78.90;;;;;;4961686;28;19977;-80
2022/10/22 10:02:56;;;;;;;;;;;17.10;78.50;;;;;;4970299;28;19915;-81
2022/10/22 10:05:32;;;;;;;;;;;17.00;78.40;;;;;;4963551;28;19918;-81
2022/10/22 10:08:01;;;;;;;;;;;17.00;79.30;;;;;;4961695;28;19915;-81
2022/10/22 10:10:32;;;;;;;;;;;17.10;78.40;;;;;;4955449;28;19919;-82
2022/10/22 10:13:07;;;;;;;;;;;17.10;78.40;;;;;;4957187;28;19915;-82
2022/10/22 10:15:37;;;;;;;;;;;17.10;78.60;;;;;;4951572;28;20458;-82
2022/10/22 10:18:11;;;;;;;;;;;17.10;78.50;;;;;;4949662;28;20438;-82
2022/10/22 10:20:42;;;;;;;;;;;17.00;77.80;;;;;;4949897;28;19918;-82
2022/10/22 10:23:13;;;;;;;;;;;16.90;78.50;;;;;;4954364;29;19914;-81
2022/10/22 10:25:45;;;;;;;;;;;16.90;78.30;;;;;;4966863;28;19925;-81
2022/10/22 10:28:19;;;;;;;;;;;16.80;78.80;;;;;;4966614;29;20333;-82
2022/10/22 10:30:50;;;;;;;;;;;16.70;78.60;;;;;;4965472;28;21244;-81
2022/10/22 10:33:25;;;;;;;;;;;16.80;78.20;;;;;;4968290;28;20048;-82
2022/10/22 10:36:01;;;;;;;;;;;16.70;78.30;;;;;;4972361;28;19914;-81
2022/10/22 10:38:35;;;;;;;;;;;16.80;78.30;;;;;;4960223;28;20060;-82
2022/10/22 10:41:20;;;;;;;;;;;16.80;78.10;;;;;;4971471;28;19918;-83
2022/10/22 10:44:02;;;;;;;;;;;16.80;78.10;;;;;;4948793;29;19919;-83
2022/10/22 10:46:27;;;;;;;;;;;17.00;77.80;;;;;;4951751;28;19919;-82
2022/10/22 10:49:02;;;;;;;;;;;17.00;77.20;;;;;;4954070;28;20046;-83
2022/10/22 10:51:37;;;;;;;;;;;17.10;77.90;;;;;;4968047;28;19926;-84
2022/10/22 10:54:02;;;;;;;;;;;17.00;77.30;;;;;;4954230;28;19966;-82
2022/10/22 10:56:43;;;;;;;;;;;17.00;77.20;;;;;;4952728;28;19914;-83
2022/10/22 10:59:14;;;;;;;;;;;17.00;76.50;;;;;;4950757;28;19938;-82
2022/10/22 11:01:59;;;;;;;;;;;17.10;76.40;;;;;;4967009;28;19919;-82
2022/10/22 11:04:37;;;;;;;;;;;17.10;76.30;;;;;;4952901;28;19915;-82
2022/10/22 11:07:05;;;;;;;;;;;17.10;76.80;;;;;;4956885;28;19925;-83
2022/10/22 11:09:36;;;;;;;;;;;17.30;76.10;;;;;;4954079;28;19919;-81
2022/10/22 11:12:09;;;;;;;;;;;17.30;75.50;;;;;;4952857;28;20387;-81
2022/10/22 11:14:45;;;;;;;;;;;17.20;75.70;;;;;;4954770;28;19926;-82
2022/10/22 11:17:14;;;;;;;;;;;17.20;76.30;;;;;;4952824;28;19921;-84
2022/10/22 11:19:42;;;;;;;;;;;17.20;76.70;;;;;;4957146;28;19914;-81
2022/10/22 11:22:18;;;;;;;;;;;17.30;76.40;;;;;;4956477;28;20287;-85
2022/10/22 11:24:49;;;;;;;;;;;17.30;75.40;;;;;;4954284;28;20360;-81
2022/10/22 11:27:21;;;;;;;;;;;17.30;75.80;;;;;;4968666;28;19915;-81
2022/10/22 11:29:51;;;;;;;;;;;17.30;75.20;;;;;;4952180;28;19922;-81
2022/10/22 11:32:18;;;;;;;;;;;17.40;75.40;;;;;;4969135;28;19925;-84
2022/10/22 11:34:55;;;;;;;;;;;17.40;75.10;;;;;;4965270;28;20008;-84
2022/10/22 11:37:22;;;;;;;;;;;17.50;75.30;;;;;;4952333;28;20303;-84
2022/10/22 11:39:54;;;;;;;;;;;17.60;74.60;;;;;;4970983;28;19934;-86
2022/10/22 11:42:31;;;;;;;;;;;17.50;74.20;;;;;;4963026;28;20025;-86
2022/10/22 11:45:04;;;;;;;;;;;17.60;74.40;;;;;;4950389;28;20260;-84
2022/10/22 11:47:34;;;;;;;;;;;17.60;75.00;;;;;;4956874;28;20043;-83
2022/10/22 11:50:18;;;;;;;;;;;17.60;74.70;;;;;;4965536;28;19915;-83
2022/10/22 11:53:02;;;;;;;;;;;17.60;74.30;;;;;;4947260;29;20387;-83
2022/10/22 11:55:44;;;;;;;;;;;17.60;74.40;;;;;;4944756;28;20294;-86
2022/10/22 11:58:33;;;;;;;;;;;17.50;74.40;;;;;;4938743;28;19914;-85
2022/10/22 12:01:01;;;;;;;;;;;17.60;73.90;;;;;;4931486;28;20067;-84
2022/10/22 12:03:27;;;;;;;;;;;17.80;73.70;;;;;;4956477;28;19915;-86
2022/10/22 12:06:11;;;;;;;;;;;17.80;73.50;;;;;;4941119;28;20390;-86
2022/10/22 12:08:53;;;;;;;;;;;17.70;73.60;;;;;;4957224;28;19950;-87
2022/10/22 12:11:38;;;;;;;;;;;17.70;73.80;;;;;;4960377;28;19919;-85
2022/10/22 12:14:06;;;;;;;;;;;17.70;73.90;;;;;;4967054;28;19998;-86
2022/10/22 12:16:32;;;;;;;;;;;17.70;73.90;;;;;;4951556;28;19918;-85
2022/10/22 12:19:10;;;;;;;;;;;17.70;73.90;;;;;;4965109;28;19929;-85
2022/10/22 12:21:40;;;;;;;;;;;17.80;73.40;;;;;;4955604;28;19925;-84
2022/10/22 12:24:06;;;;;;;;;;;17.80;72.50;;;;;;4954248;28;19930;-84
2022/10/22 12:26:33;;;;;;;;;;;17.60;72.30;;;;;;4959004;28;19923;-86
2022/10/22 12:29:00;;;;;;;;;;;17.60;72.40;;;;;;4955190;28;20247;-83
2022/10/22 12:31:25;;;;;;;;;;;17.60;72.10;;;;;;4940923;28;19915;-85
2022/10/22 12:33:55;;;;;;;;;;;17.60;71.90;;;;;;4948440;28;20356;-86
2022/10/22 12:36:20;;;;;;;;;;;17.60;71.60;;;;;;4963463;28;19997;-85
2022/10/22 12:38:46;;;;;;;;;;;17.60;72.00;;;;;;4968640;28;20446;-85
2022/10/22 12:41:12;;;;;;;;;;;17.60;71.80;;;;;;4968174;28;19941;-83
2022/10/22 12:43:38;;;;;;;;;;;17.60;71.70;;;;;;4963960;28;19918;-83
2022/10/22 12:46:04;;;;;;;;;;;17.60;71.90;;;;;;4948387;28;19996;-83
2022/10/22 12:48:37;;;;;;;;;;;17.60;72.20;;;;;;4967737;28;19911;-83
2022/10/22 12:51:03;;;;;;;;;;;17.60;72.20;;;;;;4969259;28;19921;-83
2022/10/22 12:53:34;;;;;;;;;;;17.60;72.10;;;;;;4953124;28;19915;-84
2022/10/22 12:56:01;;;;;;;;;;;17.60;72.30;;;;;;4953845;28;19914;-83
2022/10/22 12:58:27;;;;;;;;;;;17.60;72.50;;;;;;4962733;28;20387;-83
2022/10/22 13:00:56;;;;;;;;;;;17.60;71.90;;;;;;4954276;28;20374;-83
2022/10/22 13:03:29;;;;;;;;;;;17.60;71.90;;;;;;4969548;28;19937;-83
2022/10/22 13:05:55;;;;;;;;;;;17.70;71.20;;;;;;4955588;28;19978;-81
2022/10/22 13:08:21;;;;;;;;;;;17.70;71.80;;;;;;4966690;28;19954;-82
2022/10/22 13:10:51;;;;;;;;;;;17.80;71.30;;;;;;4955556;28;19910;-82
2022/10/22 13:13:29;;;;;;;;;;;17.80;71.40;;;;;;4967048;28;19925;-80
2022/10/22 13:15:55;;;;;;;;;;;17.80;71.50;;;;;;4955131;28;19958;-81
2022/10/22 13:18:22;;;;;;;;;;;17.80;71.30;;;;;;4968272;28;19915;-81
2022/10/22 13:21:01;;;;;;;;;;;17.70;71.50;;;;;;4954526;28;19925;-81
2022/10/22 13:23:28;;;;;;;;;;;17.80;72.40;;;;;;4951818;28;19914;-81
2022/10/22 13:25:56;;;;;;;;;;;17.80;72.00;;;;;;4954937;28;20405;-80
2022/10/22 13:28:23;;;;;;;;;;;17.80;72.00;;;;;;4950165;28;20024;-84
2022/10/22 13:30:54;;;;;;;;;;;17.80;72.30;;;;;;4955029;28;19914;-82
2022/10/22 13:33:31;;;;;;;;;;;17.80;72.50;;;;;;4972336;28;19942;-82
2022/10/22 13:35:57;;;;;;;;;;;18.00;71.40;;;;;;4958620;28;20318;-81
2022/10/22 13:38:23;;;;;;;;;;;17.80;71.30;;;;;;4955489;28;19919;-85
2022/10/22 13:40:49;;;;;;;;;;;17.60;72.10;;;;;;4972705;28;19915;-81
2022/10/22 13:43:14;;;;;;;;;;;17.50;72.80;;;;;;4981570;23;19936;-80
2022/10/22 13:45:40;;;;;;;;;;;17.50;72.50;;;;;;5001543;28;19909;-80
2022/10/22 13:48:08;;;;;;;;;;;17.40;72.80;;;;;;5000444;28;19937;-80
2022/10/22 13:50:34;;;;;;;;;;;17.50;72.70;;;;;;5003459;28;19953;-80
2022/10/22 13:52:59;;;;;;;;;;;17.50;72.50;;;;;;5004128;28;19917;-80
2022/10/22 13:55:27;;;;;;;;;;;17.50;72.30;;;;;;5004702;28;19910;-80
2022/10/22 13:58:02;;;;;;;;;;;17.50;71.80;;;;;;5003334;28;19913;-80
2022/10/22 14:00:28;;;;;;;;;;;17.50;72.50;;;;;;5001706;28;19961;-80
2022/10/22 14:02:55;;;;;;;;;;;17.40;72.70;;;;;;5005035;28;19925;-81
2022/10/22 14:05:21;;;;;;;;;;;17.40;72.30;;;;;;5009325;28;19965;-80
2022/10/22 14:07:46;;;;;;;;;;;17.50;72.10;;;;;;5010386;28;19921;-80
2022/10/22 14:10:22;;;;;;;;;;;17.50;72.10;;;;;;5010192;28;19914;-80
2022/10/22 14:12:48;;;;;;;;;;;17.70;71.90;;;;;;5005314;28;20433;-81
2022/10/22 14:15:14;;;;;;;;;;;17.60;71.50;;;;;;5007020;28;19914;-80
2022/10/22 14:17:41;;;;;;;;;;;17.60;71.50;;;;;;5000626;28;19977;-80
2022/10/22 14:20:17;;;;;;;;;;;17.50;70.90;;;;;;5004009;28;20005;-80
2022/10/22 14:22:44;;;;;;;;;;;17.60;71.60;;;;;;5005327;28;19910;-80
2022/10/22 14:25:12;;;;;;;;;;;17.50;71.40;;;;;;5003967;28;19914;-80